Weather at Los Angeles International Airport

Public forecast

Using degrees Fahrenheit for public forecast. Weather courtesy of forecast.io.

Current aviation weather report (METAR) for Los Angeles International Airport

Retrieved 2021/07/28 13:05 UTC (5 minutes ago):

KLAX 281305Z 24004KT 6SM BR FEW003 SCT006 BKN150 18/17 A3000

Aviation forecast (TAF) for Los Angeles International Airport

Retrieved 2021/07/28 13:36 UTC (0 seconds ago):

TAF COR KLAX 281232Z 2813/2918 VRB03KT P6SM OVC005 FM281600 25007KT P6SM BKN010 FM281800 25012KT P6SM SKC FM290600 25007KT P6SM OVC008 FM291500 VRB03KT P6SM OVC011